Time;durP1;ratioP1;P1;durP2;ratioP2;P2;SDS_P1;SDS_P2;PMS_P1;PMS_P2;Temp;Humidity;BMP_temperature;BMP_pressure;BME280_temperature;BME280_humidity;BME280_pressure;Samples;Min_cycle;Max_cycle;Signal;HPM_P1;HPM_P2
2023/08/13 00:01:30;;;;;;;12.87;10.77;;;;;;;;;;5092581;28;20557;-79
2023/08/13 00:03:57;;;;;;;7.40;6.23;;;;;;;;;;5093046;28;20196;-79
2023/08/13 00:06:23;;;;;;;29.83;18.73;;;;;;;;;;5093122;28;20223;-79
2023/08/13 00:08:50;;;;;;;10.10;8.30;;;;;;;;;;5092612;28;20666;-79
2023/08/13 00:11:17;;;;;;;4.87;4.37;;;;;;;;;;5092461;28;20197;-79
2023/08/13 00:13:44;;;;;;;5.67;4.00;;;;;;;;;;5093386;28;20196;-79
2023/08/13 00:16:11;;;;;;;8.00;4.70;;;;;;;;;;5092342;28;20670;-79
2023/08/13 00:18:39;;;;;;;5.70;5.20;;;;;;;;;;5093063;28;20196;-79
2023/08/13 00:21:06;;;;;;;4.00;3.70;;;;;;;;;;5092296;28;20249;-79
2023/08/13 00:23:33;;;;;;;4.63;3.80;;;;;;;;;;5092583;28;20211;-79
2023/08/13 00:25:59;;;;;;;3.90;3.60;;;;;;;;;;5092655;28;20223;-79
2023/08/13 00:28:26;;;;;;;4.67;3.60;;;;;;;;;;5092564;28;20211;-79
2023/08/13 00:30:55;;;;;;;3.83;3.53;;;;;;;;;;5097632;28;20191;-79
2023/08/13 00:33:21;;;;;;;5.77;4.13;;;;;;;;;;5094533;28;20579;-79
2023/08/13 00:35:50;;;;;;;3.77;3.47;;;;;;;;;;5112037;28;20603;-79
2023/08/13 00:38:17;;;;;;;8.63;4.03;;;;;;;;;;5112853;28;20191;-79
2023/08/13 00:40:44;;;;;;;4.33;3.83;;;;;;;;;;5112395;28;20191;-79
2023/08/13 00:43:10;;;;;;;4.30;3.90;;;;;;;;;;5112318;28;20195;-79
2023/08/13 00:45:38;;;;;;;5.57;3.77;;;;;;;;;;5113063;28;20223;-79
2023/08/13 00:48:06;;;;;;;5.73;3.57;;;;;;;;;;5113170;28;20214;-79
2023/08/13 00:50:33;;;;;;;3.93;3.63;;;;;;;;;;5112045;28;20207;-80
2023/08/13 00:53:01;;;;;;;22.07;4.53;;;;;;;;;;5112498;28;20646;-79
2023/08/13 00:55:28;;;;;;;9.73;4.93;;;;;;;;;;5112599;28;20214;-79
2023/08/13 00:57:54;;;;;;;5.03;3.83;;;;;;;;;;5112139;28;20191;-79
2023/08/13 01:00:22;;;;;;;4.47;4.07;;;;;;;;;;5112138;28;20199;-79
2023/08/13 01:02:49;;;;;;;3.70;3.40;;;;;;;;;;5112389;28;20195;-79
2023/08/13 01:05:16;;;;;;;4.40;3.97;;;;;;;;;;5112016;28;20240;-79
2023/08/13 01:07:49;;;;;;;4.80;4.23;;;;;;;;;;5111178;28;20203;-79
2023/08/13 01:10:25;;;;;;;4.00;3.60;;;;;;;;;;5112050;28;20665;-79
2023/08/13 01:12:57;;;;;;;7.53;3.90;;;;;;;;;;5112322;28;20568;-79
2023/08/13 01:15:29;;;;;;;4.20;3.80;;;;;;;;;;5112214;28;20231;-80
2023/08/13 01:17:56;;;;;;;6.13;4.17;;;;;;;;;;5112125;28;20703;-80
2023/08/13 01:20:26;;;;;;;4.80;4.37;;;;;;;;;;5111864;28;20210;-79
2023/08/13 01:22:54;;;;;;;4.47;4.07;;;;;;;;;;5112311;28;20199;-79
2023/08/13 01:25:22;;;;;;;5.17;4.57;;;;;;;;;;5111935;28;20585;-79
2023/08/13 01:27:53;;;;;;;6.00;4.20;;;;;;;;;;5111723;28;20680;-79
2023/08/13 01:30:24;;;;;;;4.00;3.60;;;;;;;;;;5110905;28;20199;-79
2023/08/13 01:32:55;;;;;;;4.53;4.13;;;;;;;;;;5112974;28;20261;-79
2023/08/13 01:35:23;;;;;;;3.80;3.50;;;;;;;;;;5112250;28;20211;-79
2023/08/13 01:37:50;;;;;;;3.97;3.57;;;;;;;;;;5111888;28;20202;-79
2023/08/13 01:40:18;;;;;;;12.37;4.13;;;;;;;;;;5111762;28;20200;-79
2023/08/13 01:42:45;;;;;;;9.87;5.10;;;;;;;;;;5112006;28;20191;-79
2023/08/13 01:45:12;;;;;;;8.13;3.63;;;;;;;;;;5097463;28;20292;-80
2023/08/13 01:47:39;;;;;;;5.60;4.37;;;;;;;;;;5091996;28;20227;-80
2023/08/13 01:50:07;;;;;;;4.63;3.50;;;;;;;;;;5091421;28;20689;-80
2023/08/13 01:52:33;;;;;;;7.23;3.80;;;;;;;;;;5091619;28;20236;-80
2023/08/13 01:55:00;;;;;;;6.10;4.80;;;;;;;;;;5091786;28;20608;-80
2023/08/13 01:57:28;;;;;;;4.77;4.37;;;;;;;;;;5091367;28;20624;-80
2023/08/13 01:59:55;;;;;;;4.27;3.87;;;;;;;;;;5091345;28;20203;-80
2023/08/13 02:02:22;;;;;;;4.60;4.20;;;;;;;;;;5092015;28;20196;-79
2023/08/13 02:04:49;;;;;;;4.10;3.77;;;;;;;;;;5095283;28;20237;-80
2023/08/13 02:07:15;;;;;;;5.63;4.10;;;;;;;;;;5110976;28;20227;-80
2023/08/13 02:09:42;;;;;;;4.70;3.90;;;;;;;;;;5115987;28;20202;-80
2023/08/13 02:12:09;;;;;;;5.97;4.13;;;;;;;;;;5115529;28;20199;-80
2023/08/13 02:14:37;;;;;;;4.70;3.60;;;;;;;;;;5115192;28;20205;-80
2023/08/13 02:17:04;;;;;;;4.07;3.77;;;;;;;;;;5114069;28;20195;-80
2023/08/13 02:19:31;;;;;;;4.67;4.27;;;;;;;;;;5115277;28;20205;-80
2023/08/13 02:21:57;;;;;;;5.80;3.90;;;;;;;;;;5115185;28;20607;-80
2023/08/13 02:24:26;;;;;;;6.10;4.13;;;;;;;;;;5114899;28;20684;-79
2023/08/13 02:26:53;;;;;;;4.43;3.77;;;;;;;;;;5116067;28;20305;-80
2023/08/13 02:29:20;;;;;;;4.30;3.90;;;;;;;;;;5115405;28;20199;-80
2023/08/13 02:31:48;;;;;;;4.57;3.80;;;;;;;;;;5115390;28;20207;-80
2023/08/13 02:34:15;;;;;;;5.70;4.07;;;;;;;;;;5114808;28;20202;-80
2023/08/13 02:36:42;;;;;;;4.83;4.40;;;;;;;;;;5114913;28;20673;-80
2023/08/13 02:39:09;;;;;;;5.00;4.53;;;;;;;;;;5115092;28;20562;-79
2023/08/13 02:41:35;;;;;;;4.37;4.00;;;;;;;;;;5115101;28;20191;-80
2023/08/13 02:44:02;;;;;;;4.17;3.87;;;;;;;;;;5114794;28;20200;-80
2023/08/13 02:46:29;;;;;;;4.00;3.70;;;;;;;;;;5114909;28;20223;-80
2023/08/13 02:48:57;;;;;;;4.43;3.93;;;;;;;;;;5114976;28;20199;-80
2023/08/13 02:51:25;;;;;;;4.33;3.93;;;;;;;;;;5114442;28;20248;-80
2023/08/13 02:53:52;;;;;;;4.20;3.77;;;;;;;;;;5114655;28;20248;-80
2023/08/13 02:56:19;;;;;;;6.93;4.13;;;;;;;;;;5115015;28;20207;-80
2023/08/13 02:58:46;;;;;;;3.97;3.67;;;;;;;;;;5114327;28;20731;-80
2023/08/13 03:01:13;;;;;;;4.97;3.90;;;;;;;;;;5102953;28;20200;-80
2023/08/13 03:03:39;;;;;;;4.33;3.93;;;;;;;;;;5093862;28;20203;-80
2023/08/13 03:06:07;;;;;;;6.43;4.13;;;;;;;;;;5093836;28;20216;-80
2023/08/13 03:08:34;;;;;;;4.17;3.83;;;;;;;;;;5094147;28;20281;-80
2023/08/13 03:11:01;;;;;;;4.43;3.87;;;;;;;;;;5093697;28;20200;-80
2023/08/13 03:13:28;;;;;;;5.80;3.57;;;;;;;;;;5093659;28;20650;-80
2023/08/13 03:15:55;;;;;;;4.23;3.83;;;;;;;;;;5094138;28;20270;-80
2023/08/13 03:18:22;;;;;;;4.63;4.23;;;;;;;;;;5094133;28;20196;-80
2023/08/13 03:20:48;;;;;;;6.80;3.93;;;;;;;;;;5094388;28;20218;-80
2023/08/13 03:23:16;;;;;;;4.67;4.27;;;;;;;;;;5093639;28;20728;-80
2023/08/13 03:25:43;;;;;;;4.87;4.47;;;;;;;;;;5093888;28;20547;-80
2023/08/13 03:28:10;;;;;;;5.70;4.37;;;;;;;;;;5093868;28;20220;-80
2023/08/13 03:30:37;;;;;;;6.90;3.87;;;;;;;;;;5093545;28;20196;-80
2023/08/13 03:33:04;;;;;;;7.63;4.27;;;;;;;;;;5093840;28;20207;-80
2023/08/13 03:35:30;;;;;;;4.83;4.10;;;;;;;;;;5095077;28;20196;-80
2023/08/13 03:37:57;;;;;;;4.37;4.00;;;;;;;;;;5113547;28;20206;-80
2023/08/13 03:40:25;;;;;;;7.73;3.60;;;;;;;;;;5113523;28;20206;-80
2023/08/13 03:42:52;;;;;;;5.70;4.20;;;;;;;;;;5113475;28;20666;-80
2023/08/13 03:45:19;;;;;;;5.17;4.23;;;;;;;;;;5114326;28;20200;-80
2023/08/13 03:47:46;;;;;;;4.80;3.80;;;;;;;;;;5113708;28;20215;-80
2023/08/13 03:50:13;;;;;;;4.17;3.87;;;;;;;;;;5113221;28;20199;-81
2023/08/13 03:52:39;;;;;;;6.33;4.47;;;;;;;;;;5113543;28;20215;-80
2023/08/13 03:55:07;;;;;;;4.97;4.03;;;;;;;;;;5113740;28;20203;-80
2023/08/13 03:57:35;;;;;;;5.20;4.10;;;;;;;;;;5113218;28;20312;-81
2023/08/13 04:00:02;;;;;;;6.33;4.37;;;;;;;;;;5111791;28;20191;-80
2023/08/13 04:02:33;;;;;;;5.43;4.20;;;;;;;;;;5113564;28;20558;-80
2023/08/13 04:05:00;;;;;;;5.07;3.80;;;;;;;;;;5113546;28;20199;-80
2023/08/13 04:07:26;;;;;;;7.00;4.53;;;;;;;;;;5112933;28;20230;-80
2023/08/13 04:09:53;;;;;;;7.60;4.07;;;;;;;;;;5112986;28;20619;-80
2023/08/13 04:12:20;;;;;;;8.33;4.07;;;;;;;;;;5113899;28;20214;-80
2023/08/13 04:14:48;;;;;;;9.03;4.23;;;;;;;;;;5114117;28;20204;-80
2023/08/13 04:17:15;;;;;;;6.00;4.03;;;;;;;;;;5112776;28;20206;-80
2023/08/13 04:19:41;;;;;;;4.93;3.83;;;;;;;;;;5111513;28;20195;-80
2023/08/13 04:22:08;;;;;;;3.90;3.60;;;;;;;;;;5112788;28;20195;-80
2023/08/13 04:24:35;;;;;;;5.13;4.40;;;;;;;;;;5112318;28;20195;-80
2023/08/13 04:27:02;;;;;;;6.80;4.43;;;;;;;;;;5112428;28;20256;-80
2023/08/13 04:29:28;;;;;;;7.40;4.87;;;;;;;;;;5112817;28;20199;-80
2023/08/13 04:31:57;;;;;;;5.90;4.03;;;;;;;;;;5111196;28;20688;-80
2023/08/13 04:34:23;;;;;;;4.87;4.43;;;;;;;;;;5113092;28;20308;-79
2023/08/13 04:36:51;;;;;;;4.27;3.83;;;;;;;;;;5112533;28;20613;-81
2023/08/13 04:39:18;;;;;;;5.93;4.30;;;;;;;;;;5113017;28;20202;-81
2023/08/13 04:41:44;;;;;;;4.67;4.27;;;;;;;;;;5111122;28;20200;-81
2023/08/13 04:44:11;;;;;;;5.03;4.27;;;;;;;;;;5112716;28;20213;-81
2023/08/13 04:46:38;;;;;;;5.63;4.20;;;;;;;;;;5093606;28;20596;-81
2023/08/13 04:49:06;;;;;;;5.53;4.90;;;;;;;;;;5092785;28;20595;-81
2023/08/13 04:51:33;;;;;;;4.90;4.50;;;;;;;;;;5092020;28;20203;-81
2023/08/13 04:54:00;;;;;;;4.53;4.13;;;;;;;;;;5091929;28;20228;-80
2023/08/13 04:56:26;;;;;;;5.27;4.77;;;;;;;;;;5107805;28;20207;-81
2023/08/13 04:58:53;;;;;;;3.90;3.60;;;;;;;;;;5112599;28;20205;-80
2023/08/13 05:01:20;;;;;;;4.87;4.37;;;;;;;;;;5112740;28;20294;-81
2023/08/13 05:03:47;;;;;;;8.13;3.93;;;;;;;;;;5112343;28;20253;-80
2023/08/13 05:06:16;;;;;;;4.23;3.83;;;;;;;;;;5093614;28;20574;-80
2023/08/13 05:08:43;;;;;;;4.20;3.87;;;;;;;;;;5040962;28;20216;-81
2023/08/13 05:11:10;;;;;;;7.00;4.43;;;;;;;;;;5056977;28;20197;-81
2023/08/13 05:13:37;;;;;;;4.17;3.77;;;;;;;;;;5074307;28;20199;-80
2023/08/13 05:16:04;;;;;;;3.33;3.10;;;;;;;;;;5057512;28;20212;-80
2023/08/13 05:18:32;;;;;;;4.33;3.93;;;;;;;;;;5091573;28;20196;-81
2023/08/13 05:20:58;;;;;;;5.10;3.40;;;;;;;;;;5057425;28;20540;-81
2023/08/13 05:23:27;;;;;;;3.67;3.30;;;;;;;;;;5081179;28;20554;-81
2023/08/13 05:25:55;;;;;;;3.93;3.50;;;;;;;;;;5111936;28;20191;-81
2023/08/13 05:28:21;;;;;;;3.80;3.20;;;;;;;;;;5112280;28;20234;-81
2023/08/13 05:30:48;;;;;;;3.47;3.13;;;;;;;;;;5112007;28;20611;-80
2023/08/13 05:33:15;;;;;;;4.17;3.87;;;;;;;;;;5108179;28;20194;-81
2023/08/13 05:35:42;;;;;;;3.77;3.47;;;;;;;;;;5094976;28;20203;-80
2023/08/13 05:38:09;;;;;;;3.53;3.23;;;;;;;;;;5115858;28;20274;-80
2023/08/13 05:40:37;;;;;;;4.47;4.00;;;;;;;;;;5115866;28;20204;-80
2023/08/13 05:43:04;;;;;;;3.87;3.37;;;;;;;;;;5109040;28;20196;-80
2023/08/13 05:45:30;;;;;;;3.50;3.20;;;;;;;;;;5095403;28;20728;-80
2023/08/13 05:47:57;;;;;;;6.00;3.93;;;;;;;;;;5093880;28;20767;-80
2023/08/13 05:50:26;;;;;;;5.00;3.57;;;;;;;;;;5095215;28;20200;-80
2023/08/13 05:52:53;;;;;;;3.97;3.60;;;;;;;;;;5095177;28;20220;-80
2023/08/13 05:55:19;;;;;;;5.07;3.53;;;;;;;;;;5094453;28;20207;-83
2023/08/13 05:57:48;;;;;;;4.80;3.30;;;;;;;;;;5095452;28;20203;-83
2023/08/13 06:00:15;;;;;;;3.60;3.33;;;;;;;;;;5095804;28;20203;-83
2023/08/13 06:02:42;;;;;;;3.70;3.40;;;;;;;;;;5097747;28;20203;-83
2023/08/13 06:05:09;;;;;;;3.43;3.20;;;;;;;;;;5116034;28;20199;-82
2023/08/13 06:07:36;;;;;;;9.27;3.90;;;;;;;;;;5115265;28;20223;-83
2023/08/13 06:10:03;;;;;;;3.20;3.00;;;;;;;;;;5116058;28;20207;-83
2023/08/13 06:12:31;;;;;;;3.50;3.20;;;;;;;;;;5115387;28;20662;-83
2023/08/13 06:14:59;;;;;;;3.77;3.20;;;;;;;;;;5115655;28;20203;-83
2023/08/13 06:17:26;;;;;;;5.60;3.60;;;;;;;;;;5115116;28;20199;-83
2023/08/13 06:19:52;;;;;;;3.83;3.10;;;;;;;;;;5115299;28;20286;-82
2023/08/13 06:22:20;;;;;;;3.00;2.80;;;;;;;;;;5115827;28;20195;-83
2023/08/13 06:24:47;;;;;;;3.70;3.30;;;;;;;;;;5116242;28;20207;-82
2023/08/13 06:27:14;;;;;;;3.83;3.50;;;;;;;;;;5114927;28;20240;-82
2023/08/13 06:29:40;;;;;;;3.93;2.73;;;;;;;;;;5114869;28;20579;-82
2023/08/13 06:32:09;;;;;;;3.00;2.70;;;;;;;;;;5114062;28;20195;-82
2023/08/13 06:34:35;;;;;;;4.00;3.27;;;;;;;;;;5114937;28;20684;-82
2023/08/13 06:37:03;;;;;;;3.27;2.87;;;;;;;;;;5114700;28;20195;-82
2023/08/13 06:39:30;;;;;;;3.90;2.80;;;;;;;;;;5115233;28;20203;-82
2023/08/13 06:41:57;;;;;;;3.20;3.00;;;;;;;;;;5114594;28;20221;-82
2023/08/13 06:44:24;;;;;;;4.53;3.13;;;;;;;;;;5114553;28;20191;-82
2023/08/13 06:46:51;;;;;;;3.30;3.00;;;;;;;;;;5115246;28;20199;-82
2023/08/13 06:49:19;;;;;;;3.07;2.77;;;;;;;;;;5113986;28;20223;-82
2023/08/13 06:51:46;;;;;;;2.87;2.57;;;;;;;;;;5114615;28;20203;-81
2023/08/13 06:54:13;;;;;;;4.13;2.70;;;;;;;;;;5115045;28;20230;-81
2023/08/13 06:56:40;;;;;;;5.00;4.60;;;;;;;;;;5107005;28;20287;-82
2023/08/13 06:59:06;;;;;;;10.93;7.07;;;;;;;;;;5094134;28;20200;-81
2023/08/13 07:01:33;;;;;;;3.60;3.30;;;;;;;;;;5104549;28;20199;-82
2023/08/13 07:04:00;;;;;;;5.13;4.73;;;;;;;;;;5114501;28;20203;-81
2023/08/13 07:06:31;;;;;;;7.07;3.60;;;;;;;;;;5114484;28;20230;-82
2023/08/13 07:08:58;;;;;;;3.50;3.20;;;;;;;;;;5114358;28;20272;-82
2023/08/13 07:11:25;;;;;;;5.20;3.60;;;;;;;;;;5114170;28;20200;-81
2023/08/13 07:13:52;;;;;;;5.00;4.57;;;;;;;;;;5114620;28;20259;-81
2023/08/13 07:16:19;;;;;;;3.37;3.13;;;;;;;;;;5114030;28;20199;-82
2023/08/13 07:18:45;;;;;;;5.23;3.30;;;;;;;;;;5114108;28;20200;-82
2023/08/13 07:21:12;;;;;;;5.57;5.07;;;;;;;;;;5112238;28;20195;-82
2023/08/13 07:23:41;;;;;;;3.27;3.03;;;;;;;;;;5093334;28;20212;-82
2023/08/13 07:26:08;;;;;;;3.13;2.83;;;;;;;;;;5094109;28;20196;-82
2023/08/13 07:28:35;;;;;;;2.80;2.60;;;;;;;;;;5093756;28;20224;-82
2023/08/13 07:31:04;;;;;;;4.90;3.10;;;;;;;;;;5093295;28;20731;-82
2023/08/13 07:33:31;;;;;;;2.63;2.43;;;;;;;;;;5094214;28;20570;-81
2023/08/13 07:35:59;;;;;;;4.83;3.83;;;;;;;;;;5093252;28;20283;-81
2023/08/13 07:38:27;;;;;;;3.43;2.70;;;;;;;;;;5093491;28;20193;-80
2023/08/13 07:40:56;;;;;;;5.37;3.17;;;;;;;;;;5093879;28;20200;-80
2023/08/13 07:43:23;;;;;;;3.23;2.93;;;;;;;;;;5093233;28;20689;-80
2023/08/13 07:45:50;;;;;;;2.87;2.63;;;;;;;;;;5093089;28;20208;-80
2023/08/13 07:48:17;;;;;;;4.77;3.00;;;;;;;;;;5093025;28;20281;-81
2023/08/13 07:50:45;;;;;;;3.07;2.77;;;;;;;;;;5113796;28;20218;-80
2023/08/13 07:53:12;;;;;;;3.67;3.37;;;;;;;;;;5113935;28;20219;-83
2023/08/13 07:55:39;;;;;;;2.63;2.43;;;;;;;;;;5093321;28;20196;-81
2023/08/13 07:58:08;;;;;;;4.70;2.57;;;;;;;;;;5112949;28;20203;-81
2023/08/13 08:00:35;;;;;;;4.00;2.60;;;;;;;;;;5112168;28;20196;-82
2023/08/13 08:03:03;;;;;;;4.22;2.95;;;;;;;;;;5113392;28;20191;-82
2023/08/13 08:05:30;;;;;;;2.92;2.72;;;;;;;;;;5113095;28;20696;-82
2023/08/13 08:07:57;;;;;;;4.00;2.88;;;;;;;;;;5113358;28;20223;-81
2023/08/13 08:10:24;;;;;;;4.80;3.20;;;;;;;;;;5113043;28;20203;-81
2023/08/13 08:12:51;;;;;;;3.90;3.55;;;;;;;;;;5113026;28;20661;-81
2023/08/13 08:15:21;;;;;;;3.03;2.80;;;;;;;;;;5112996;28;20661;-81
2023/08/13 08:17:48;;;;;;;3.92;2.75;;;;;;;;;;5112815;28;20227;-81
2023/08/13 08:20:14;;;;;;;3.10;2.90;;;;;;;;;;5112893;28;20203;-81
2023/08/13 08:22:42;;;;;;;8.68;7.05;;;;;;;;;;5111277;28;20191;-79
2023/08/13 08:25:09;;;;;;;3.70;3.40;;;;;;;;;;5113196;28;20196;-79
2023/08/13 08:27:36;;;;;;;3.22;3.03;;;;;;;;;;5113089;28;20226;-78
2023/08/13 08:30:03;;;;;;;4.25;2.83;;;;;;;;;;5094688;28;20208;-79
2023/08/13 08:32:32;;;;;;;4.32;3.30;;;;;;;;;;5092248;28;20667;-76
2023/08/13 08:34:58;;;;;;;2.72;2.53;;;;;;;;;;5092380;28;20670;-76
2023/08/13 08:37:26;;;;;;;3.10;2.80;;;;;;;;;;5092041;28;20192;-76
2023/08/13 08:39:52;;;;;;;3.10;2.60;;;;;;;;;;5092218;28;20204;-76
2023/08/13 08:42:20;;;;;;;4.60;4.20;;;;;;;;;;5092837;28;20203;-76
2023/08/13 08:44:47;;;;;;;4.82;3.88;;;;;;;;;;5092724;28;20703;-76
2023/08/13 08:47:14;;;;;;;4.53;2.88;;;;;;;;;;5092955;28;20578;-78
2023/08/13 08:49:44;;;;;;;3.72;3.42;;;;;;;;;;5103415;28;20230;-77
2023/08/13 08:52:10;;;;;;;2.70;2.50;;;;;;;;;;5112776;28;20550;-77
2023/08/13 08:54:38;;;;;;;3.20;3.00;;;;;;;;;;5113186;28;20215;-77
2023/08/13 08:57:06;;;;;;;2.95;2.75;;;;;;;;;;5112670;28;20203;-76
2023/08/13 08:59:33;;;;;;;3.80;2.72;;;;;;;;;;5110680;28;20191;-77
2023/08/13 09:01:59;;;;;;;3.35;2.60;;;;;;;;;;5111823;28;20199;-76
2023/08/13 09:04:26;;;;;;;4.45;2.90;;;;;;;;;;5110990;28;20695;-77
2023/08/13 09:06:59;;;;;;;3.20;2.90;;;;;;;;;;5112322;28;20203;-77
2023/08/13 09:09:28;;;;;;;3.60;3.30;;;;;;;;;;5112463;28;20582;-77
2023/08/13 09:11:56;;;;;;;4.50;3.30;;;;;;;;;;5104655;28;20654;-76
2023/08/13 09:14:23;;;;;;;3.35;3.15;;;;;;;;;;5092003;28;20200;-76
2023/08/13 09:16:51;;;;;;;3.42;2.42;;;;;;;;;;5091967;28;20224;-77
2023/08/13 09:19:19;;;;;;;3.70;2.88;;;;;;;;;;5091735;28;20203;-76
2023/08/13 09:21:50;;;;;;;6.95;3.38;;;;;;;;;;5095609;28;20653;-76
2023/08/13 09:24:18;;;;;;;2.90;2.70;;;;;;;;;;5112336;28;20191;-77
2023/08/13 09:26:45;;;;;;;3.30;2.90;;;;;;;;;;5112292;28;20203;-76
2023/08/13 09:29:13;;;;;;;3.10;2.90;;;;;;;;;;5111917;28;20609;-76
2023/08/13 09:31:40;;;;;;;2.78;2.58;;;;;;;;;;5112011;28;20207;-77
2023/08/13 09:34:07;;;;;;;2.75;2.55;;;;;;;;;;5093813;28;20195;-77
2023/08/13 09:36:34;;;;;;;3.42;2.58;;;;;;;;;;5111984;28;20206;-77
2023/08/13 09:39:01;;;;;;;3.30;3.10;;;;;;;;;;5111813;28;20222;-76
2023/08/13 09:41:29;;;;;;;3.38;2.45;;;;;;;;;;5112251;28;20210;-77
2023/08/13 09:43:56;;;;;;;3.33;2.20;;;;;;;;;;5112022;28;20215;-77
2023/08/13 09:46:29;;;;;;;3.42;3.13;;;;;;;;;;5111967;28;20221;-76
2023/08/13 09:48:58;;;;;;;3.15;2.60;;;;;;;;;;5111927;28;20223;-77
2023/08/13 09:51:30;;;;;;;3.53;3.22;;;;;;;;;;5111907;28;20686;-76
2023/08/13 09:53:59;;;;;;;3.75;2.95;;;;;;;;;;5111619;28;20237;-76
2023/08/13 09:56:29;;;;;;;4.10;2.63;;;;;;;;;;5111910;28;20211;-77
2023/08/13 09:58:56;;;;;;;2.78;2.58;;;;;;;;;;5111942;28;20199;-76
2023/08/13 10:01:24;;;;;;;3.10;2.80;;;;;;;;;;5111573;28;20203;-77
2023/08/13 10:03:51;;;;;;;3.30;3.00;;;;;;;;;;5112234;28;20196;-76
2023/08/13 10:06:19;;;;;;;4.88;3.83;;;;;;;;;;5111549;28;20717;-77
2023/08/13 10:08:46;;;;;;;3.05;2.85;;;;;;;;;;5111483;28;20230;-76
2023/08/13 10:11:14;;;;;;;3.10;2.80;;;;;;;;;;5112255;28;20201;-76
2023/08/13 10:13:42;;;;;;;6.43;2.90;;;;;;;;;;5108276;28;20283;-76
2023/08/13 10:16:09;;;;;;;3.47;2.70;;;;;;;;;;5092167;28;20579;-76
2023/08/13 10:18:36;;;;;;;2.75;2.55;;;;;;;;;;5091116;28;20204;-76
2023/08/13 10:21:03;;;;;;;2.90;2.70;;;;;;;;;;5091104;28;20196;-76
2023/08/13 10:23:30;;;;;;;5.63;2.88;;;;;;;;;;5091980;28;20204;-76
2023/08/13 10:25:57;;;;;;;3.00;2.72;;;;;;;;;;5095151;28;20642;-76
2023/08/13 10:28:25;;;;;;;2.47;2.28;;;;;;;;;;5095268;28;20284;-77
2023/08/13 10:31:25;;;;;;;3.65;2.40;;;;;;;;;;5094624;28;20200;-77
2023/08/13 10:34:10;;;;;;;6.63;5.47;;;;;;;;;;5098673;28;20721;-76
2023/08/13 10:36:44;;;;;;;38.33;21.92;;;;;;;;;;5114109;28;20203;-77
2023/08/13 10:39:36;;;;;;;3.40;3.20;;;;;;;;;;5112220;28;20229;-76
2023/08/13 10:42:04;;;;;;;51.95;40.80;;;;;;;;;;5080397;28;20201;-77
2023/08/13 10:44:33;;;;;;;11.23;10.05;;;;;;;;;;5094347;28;20208;-76
2023/08/13 10:47:00;;;;;;;20.52;17.30;;;;;;;;;;5094254;28;20197;-77
2023/08/13 10:49:28;;;;;;;2.90;2.70;;;;;;;;;;5094183;28;20224;-76
2023/08/13 10:52:01;;;;;;;3.42;3.13;;;;;;;;;;5094250;28;20214;-77
2023/08/13 10:54:28;;;;;;;3.92;3.10;;;;;;;;;;5105190;28;20692;-76
2023/08/13 10:56:58;;;;;;;2.85;2.60;;;;;;;;;;5113069;28;20199;-76
2023/08/13 10:59:39;;;;;;;2.78;2.53;;;;;;;;;;5114448;28;20195;-76
2023/08/13 11:02:17;;;;;;;4.10;2.80;;;;;;;;;;5112561;28;20211;-80
2023/08/13 11:04:45;;;;;;;5.43;2.88;;;;;;;;;;5114428;28;20256;-77
2023/08/13 11:07:12;;;;;;;2.90;2.70;;;;;;;;;;5113285;28;20208;-77
2023/08/13 11:09:39;;;;;;;3.42;3.13;;;;;;;;;;5113322;28;20212;-77
2023/08/13 11:12:08;;;;;;;3.03;2.83;;;;;;;;;;5114213;28;20207;-77
2023/08/13 11:14:36;;;;;;;3.33;3.13;;;;;;;;;;5112680;28;20192;-77
2023/08/13 11:17:03;;;;;;;5.10;3.10;;;;;;;;;;5114378;28;20195;-77
2023/08/13 11:19:29;;;;;;;3.50;3.15;;;;;;;;;;5112399;28;20199;-78
2023/08/13 11:21:58;;;;;;;6.05;3.50;;;;;;;;;;5113893;28;20634;-77
2023/08/13 11:24:25;;;;;;;4.25;3.75;;;;;;;;;;5113809;28;20206;-78
2023/08/13 11:26:52;;;;;;;4.50;4.10;;;;;;;;;;5113901;28;20226;-77
2023/08/13 11:29:20;;;;;;;4.68;4.20;;;;;;;;;;5112732;28;20706;-78
2023/08/13 11:31:47;;;;;;;4.32;3.20;;;;;;;;;;5112462;28;20206;-78
2023/08/13 11:34:16;;;;;;;7.25;3.17;;;;;;;;;;5112318;28;20565;-79
2023/08/13 11:36:43;;;;;;;3.20;2.90;;;;;;;;;;5114159;28;20227;-77
2023/08/13 11:39:11;;;;;;;2.78;2.58;;;;;;;;;;5113047;28;20634;-77
2023/08/13 11:41:38;;;;;;;5.43;2.92;;;;;;;;;;5111976;28;20278;-77
2023/08/13 11:44:07;;;;;;;3.17;2.97;;;;;;;;;;5113623;28;20202;-77
2023/08/13 11:46:52;;;;;;;3.40;2.58;;;;;;;;;;5113712;28;20204;-77
2023/08/13 11:49:19;;;;;;;3.05;2.80;;;;;;;;;;5112682;28;20309;-77
2023/08/13 11:51:46;;;;;;;3.67;2.97;;;;;;;;;;5113199;28;20199;-78
2023/08/13 11:54:14;;;;;;;3.90;3.00;;;;;;;;;;5113863;28;20226;-77
2023/08/13 11:56:41;;;;;;;2.90;2.70;;;;;;;;;;5113286;28;20661;-78
2023/08/13 11:59:08;;;;;;;3.47;2.90;;;;;;;;;;5113177;28;20198;-78
2023/08/13 12:01:37;;;;;;;3.10;2.60;;;;;;;;;;5108566;28;20647;-78
2023/08/13 12:04:04;;;;;;;2.78;2.58;;;;;;;;;;5093079;28;20206;-78
2023/08/13 12:06:33;;;;;;;3.00;2.80;;;;;;;;;;5092822;28;20200;-77
2023/08/13 12:09:00;;;;;;;3.20;2.55;;;;;;;;;;5092680;28;20216;-78
2023/08/13 12:11:29;;;;;;;3.67;3.15;;;;;;;;;;5092393;28;20200;-78
2023/08/13 12:13:56;;;;;;;2.78;2.58;;;;;;;;;;5092936;28;20548;-77
2023/08/13 12:16:22;;;;;;;3.05;2.75;;;;;;;;;;5092949;28;20196;-78
2023/08/13 12:18:49;;;;;;;3.33;3.03;;;;;;;;;;5093114;28;20200;-77
2023/08/13 12:21:16;;;;;;;3.28;2.78;;;;;;;;;;5092937;28;20196;-77
2023/08/13 12:23:43;;;;;;;3.38;3.08;;;;;;;;;;5092564;28;20196;-78
2023/08/13 12:26:10;;;;;;;3.80;3.50;;;;;;;;;;5093350;28;20197;-77
2023/08/13 12:28:39;;;;;;;2.70;2.53;;;;;;;;;;5092672;28;20671;-77
2023/08/13 12:31:05;;;;;;;2.55;2.35;;;;;;;;;;5092152;28;20231;-78
2023/08/13 12:33:34;;;;;;;3.83;2.97;;;;;;;;;;5092612;28;20287;-77
2023/08/13 12:36:03;;;;;;;2.65;2.45;;;;;;;;;;5092422;28;20610;-78
2023/08/13 12:38:31;;;;;;;2.92;2.72;;;;;;;;;;5092317;28;20188;-77
2023/08/13 12:41:02;;;;;;;3.03;2.72;;;;;;;;;;5092322;28;20215;-77
2023/08/13 12:43:29;;;;;;;2.42;2.30;;;;;;;;;;5091714;28;20200;-77
2023/08/13 12:45:57;;;;;;;3.13;2.83;;;;;;;;;;5092702;28;20282;-77
2023/08/13 12:48:26;;;;;;;3.22;2.58;;;;;;;;;;5092088;28;20666;-77
2023/08/13 12:50:53;;;;;;;3.75;2.78;;;;;;;;;;5091597;28;20694;-77
2023/08/13 12:53:20;;;;;;;2.72;2.53;;;;;;;;;;5092405;28;20551;-77
2023/08/13 12:55:47;;;;;;;3.63;3.33;;;;;;;;;;5092938;28;20656;-77
2023/08/13 12:58:14;;;;;;;3.15;2.95;;;;;;;;;;5092559;28;20196;-77
2023/08/13 13:00:41;;;;;;;3.72;2.60;;;;;;;;;;5091849;28;20230;-77
2023/08/13 13:03:09;;;;;;;3.42;3.05;;;;;;;;;;5092503;28;20199;-77
2023/08/13 13:05:36;;;;;;;3.25;3.05;;;;;;;;;;5091931;28;20207;-77
2023/08/13 13:08:03;;;;;;;3.33;3.10;;;;;;;;;;5092346;28;20200;-77
2023/08/13 13:10:29;;;;;;;3.40;3.10;;;;;;;;;;5106840;28;20219;-77
2023/08/13 13:12:56;;;;;;;4.45;3.00;;;;;;;;;;5112096;28;20277;-77
2023/08/13 13:15:23;;;;;;;5.05;3.13;;;;;;;;;;5112331;28;20199;-77
2023/08/13 13:17:50;;;;;;;3.35;2.55;;;;;;;;;;5111978;28;20192;-77
2023/08/13 13:20:18;;;;;;;2.60;2.40;;;;;;;;;;5112624;28;20210;-77
2023/08/13 13:22:45;;;;;;;3.03;2.83;;;;;;;;;;5112271;28;20283;-78
2023/08/13 13:25:12;;;;;;;3.47;2.45;;;;;;;;;;5111917;28;20654;-77
2023/08/13 13:27:40;;;;;;;3.40;3.10;;;;;;;;;;5112492;28;20202;-77
2023/08/13 13:30:08;;;;;;;3.25;2.95;;;;;;;;;;5111864;28;20223;-77
2023/08/13 13:32:35;;;;;;;3.17;2.67;;;;;;;;;;5112300;28;20191;-77
2023/08/13 13:35:03;;;;;;;5.03;3.80;;;;;;;;;;5112379;28;20195;-77
2023/08/13 13:37:31;;;;;;;2.60;2.40;;;;;;;;;;5111791;28;20634;-77
2023/08/13 13:39:58;;;;;;;3.13;2.78;;;;;;;;;;5111747;28;20199;-77
2023/08/13 13:42:27;;;;;;;2.67;2.47;;;;;;;;;;5111909;28;20191;-77
2023/08/13 13:44:54;;;;;;;4.53;3.33;;;;;;;;;;5103784;28;20199;-77
2023/08/13 13:47:21;;;;;;;2.85;2.65;;;;;;;;;;5090836;28;20655;-77
2023/08/13 13:49:47;;;;;;;3.47;3.17;;;;;;;;;;5090445;28;20601;-77
2023/08/13 13:52:14;;;;;;;2.78;2.58;;;;;;;;;;5091861;28;20199;-77
2023/08/13 13:54:42;;;;;;;3.35;3.03;;;;;;;;;;5094904;28;20192;-76
2023/08/13 13:57:09;;;;;;;2.90;2.70;;;;;;;;;;5112294;28;20199;-78
2023/08/13 13:59:36;;;;;;;2.72;2.53;;;;;;;;;;5115781;28;20199;-77
2023/08/13 14:02:03;;;;;;;2.72;2.53;;;;;;;;;;5094207;28;20192;-77
2023/08/13 14:04:30;;;;;;;2.60;2.40;;;;;;;;;;5095405;28;20197;-77
2023/08/13 14:06:56;;;;;;;2.65;2.45;;;;;;;;;;5103511;28;20196;-77
2023/08/13 14:09:23;;;;;;;2.75;2.55;;;;;;;;;;5099267;28;20207;-77
2023/08/13 14:11:51;;;;;;;3.38;3.08;;;;;;;;;;5100305;28;20195;-77
2023/08/13 14:14:18;;;;;;;2.85;2.65;;;;;;;;;;5114964;28;20776;-77
2023/08/13 14:16:45;;;;;;;3.00;2.80;;;;;;;;;;5115545;28;20210;-77
2023/08/13 14:19:12;;;;;;;7.18;2.78;;;;;;;;;;5113690;28;20207;-77
2023/08/13 14:21:38;;;;;;;2.85;2.65;;;;;;;;;;5115572;28;20212;-76
2023/08/13 14:24:06;;;;;;;3.35;2.70;;;;;;;;;;5115077;28;20237;-77
2023/08/13 14:26:32;;;;;;;3.00;2.70;;;;;;;;;;5115133;28;20207;-77
2023/08/13 14:29:03;;;;;;;3.17;2.88;;;;;;;;;;5115121;28;20199;-77
2023/08/13 14:31:29;;;;;;;3.58;2.55;;;;;;;;;;5115119;28;20352;-77
2023/08/13 14:33:56;;;;;;;2.80;2.60;;;;;;;;;;5115067;28;20199;-77
2023/08/13 14:36:23;;;;;;;3.70;2.42;;;;;;;;;;5115017;28;20202;-77
2023/08/13 14:38:51;;;;;;;2.70;2.50;;;;;;;;;;5115226;28;20212;-77
2023/08/13 14:41:18;;;;;;;2.80;2.30;;;;;;;;;;5112218;28;20203;-77
2023/08/13 14:43:45;;;;;;;3.33;2.42;;;;;;;;;;5093980;28;20210;-77
2023/08/13 14:46:14;;;;;;;2.83;2.63;;;;;;;;;;5093982;28;20196;-77